Skip Navigation Links Skip Navigation Links

Current Weather

Catalina, Avalon, Calif.

For information only: do not use for flight planning or navigation.
Latest weather
Observation time Tuesday, October 19, 2021 12:51 AM PDT
Local time Tuesday, October 19, 2021 1:28 AM PDT
Flight conditions Visual Meteorological Conditions
Winds
Wind direction East (100°)
Wind speed 5 mph
Visibility 10 mi.
Sky condition
Ceiling unlimited
Sky clear
Temperature 50°F
Dewpoint 45°F
Altimeter 29.99 in.Hg
Derived measurements
Relative humidity 83%
Wind chill 48°F
Density altitude 1071 ft.
Sea-level pressure 29.98 in.Hg
Climate data
Temperature minimum, last 24 hours 50°F
Temperature maximum, last 24 hours 58°F
Remarks
Fully automated report.
Automated weather observing station with precipitation discriminator.
METAR KAVX 190751Z AUTO 10004KT 10SM CLR 10/07 A2999 RMK AO2 SLP154 T01000072 401440100

Settings

Location code

InnerDrive.Weather 4.0.6770.0 Release CLR 4.0.30319.42000
Copyright ©2018 Inner Drive Technology. All rights reserved. Portions Copyright ©1986-2018 David Braverman.

Find weather

Site navigation


Skip Navigation Links

Place info

Page info

PayPal - The safer, easier way to pay online!

Return home.

Copyright ©2021 Inner Drive Technology. Purveyors of fine, hand-crafted computer software. Page printed 2021-10-19T08:28:29 UTC.